Castle Village, Louisiana
Current Conditions -  °F | °C
As of 7:53 AM on Saturday 22 Nov 2014 (Local Time) from KAEX Reporting Station
Clear Clear  
Wind Chill: 56°   Ceiling: Unl
Heat Index: 56°   Visibility: 10mi
Dew Point: 50°   Wind: 10mph
Humidity: 80%   Direction: 100°E
Pressure: 30.16"   Gusts: NA
Location:  31.2655°N, 92.4705°W
Report Text: KAEX 221353Z 10009KT 10SM CLR 13/10 A3016 RMK AO2 SLP215 T01330100
Loading
Personal Weather Stations






























Interactive Weather Map New forecast layout! Learn more

10-Day Weather Forecast

Advertisements
Track Severe Weather on mobile